LSZALFMK

Guest
Details From LSZA - Lugano
To LFMK - Salvaza
Flight Number -
Tags Generated
Created
Modified
Stats Distance 328 nm / 608 km
Max Altitude 0 ft / 0 m
Waypoints 3
Social Downloads 0
Likes 0
Share VATSIM

Download

Looking for another format? Having issues loading an existing format? Contact us
Advertisement - Login to hide

Notes

Generated

Route

LSZA KONON LFMK

ID Type Via Altitude Latitude Longitude Leg Dist Tot Dist Heading (true) Name
O LSZA APT - 0 ft / 0 m 45.99853˚ 8.90776˚ - 0 nm - Lugano
KONON FIX - 0 ft / 0 m 43.26806˚ 2.42583˚ 321 nm 321 nm 242° / 237° -
O LFMK APT - 0 ft / 0 m 43.21714˚ 2.29266˚ 6 nm 328 nm 242° / 242° -

Altitude Profile

Advertisement - Login to hide

Weather


0- 5 10 15 20 25 30 35+ Temperature / ° C

Clouds and Precipitation
Forecast for 2017-12-14 00:00 UTC. Updated an hour ago

Ground ~20,000 ft ~40,000 ft Winds

LSZA

Details ICAO LSZA (LUG)
Name Lugano
Region Switzerland
Timezone Europe/Zurich (UTC+1.0)
Stats Elevation 915 ft / 279 m (AMSL)
Location 46.004275° 8.910579°
Runways 1
Magnetic Variation 2.423° E

METAR

LSZA 140020Z AUTO VRB02KT 9999 OVC050 01/M02 Q1012

Decode

TAF

Not found

Departure Runways

ID Width Length Bearing (true) Bearing (mag) Surface Threshold Offset Overrun Length
01 98 ft / 30 m 4,430 ft / 1,350 m 18.79° 16.37° Asphalt 361 ft / 110 m 0 ft / 0 m
19 98 ft / 30 m 4,430 ft / 1,350 m 198.79° 196.37° Asphalt 673 ft / 205 m 0 ft / 0 m

LFMK

Details ICAO LFMK (CCF)
Name Salvaza
Region France
Timezone Europe/Paris (UTC+1.0)
Stats Elevation 433 ft / 132 m (AMSL)
Location 43.216122° 2.305496°
Runways 1
Magnetic Variation 0.835° E

METAR

LFMK 140030Z AUTO 28013KT 8000 -DZ BKN017 BKN025 BKN032 09/09 Q1015

Decode

TAF

TAF LFMK 131815Z 1318/1415 CNL

Decode

Destination Runways

ID Width Length Bearing (true) Bearing (mag) Surface Threshold Offset Overrun Length
10 148 ft / 45 m 6,869 ft / 2,094 m 96.20° 95.36° Asphalt 479 ft / 146 m 0 ft / 0 m
28 148 ft / 45 m 6,869 ft / 2,094 m 276.22° 275.38° Asphalt 492 ft / 150 m 0 ft / 0 m

Approach Navaids

Runway Type Ident Frequency Range Bearing (true) Bearing (mag) Slope Elevation
10 Localiser CS 111.10 MHz 27 nm / 50 km 96.29° 95.45° - 433 ft / 132 m (AMSL)
10 Glidescope CS 111.10 MHz 27 nm / 50 km 96.29° 95.45° 3.00° 433 ft / 132 m (AMSL)
10 DME CS 111.10 MHz 27 nm / 50 km - - - 433 ft / 132 m (AMSL)